Time;durP1;ratioP1;P1;durP2;ratioP2;P2;SDS_P1;SDS_P2;PMS_P1;PMS_P2;Temp;Humidity;BMP_temperature;BMP_pressure;BME280_temperature;BME280_humidity;BME280_pressure;Samples;Min_cycle;Max_cycle;Signal;HPM_P1;HPM_P2
2023/06/09 00:02:18;;;;;;;19.20;6.80;;;12.40;99.90;;;;;;5072906;28;20377;-70
2023/06/09 00:04:44;;;;;;;16.87;6.20;;;12.40;99.90;;;;;;5073206;28;20091;-70
2023/06/09 00:07:10;;;;;;;17.47;5.87;;;12.40;99.90;;;;;;5072524;28;20040;-70
2023/06/09 00:09:35;;;;;;;13.87;6.27;;;12.40;99.90;;;;;;5073082;28;20396;-70
2023/06/09 00:12:02;;;;;;;21.50;6.80;;;12.40;99.90;;;;;;5073108;28;20106;-71
2023/06/09 00:14:28;;;;;;;18.50;6.50;;;12.40;99.90;;;;;;5071652;28;20139;-70
2023/06/09 00:16:55;;;;;;;22.23;7.13;;;12.40;99.90;;;;;;5073071;28;20287;-70
2023/06/09 00:19:22;;;;;;;18.07;7.23;;;12.30;99.90;;;;;;5072740;28;20286;-71
2023/06/09 00:21:51;;;;;;;17.97;6.37;;;12.40;99.90;;;;;;5072985;28;20317;-70
2023/06/09 00:24:21;;;;;;;18.20;7.80;;;12.40;99.90;;;;;;5072665;28;20283;-69
2023/06/09 00:26:47;;;;;;;15.07;5.90;;;12.40;99.90;;;;;;5072151;28;20298;-69
2023/06/09 00:29:16;;;;;;;23.03;7.47;;;12.40;99.90;;;;;;5072613;28;20303;-69
2023/06/09 00:31:42;;;;;;;16.63;6.87;;;12.40;99.90;;;;;;5073182;28;20302;-71
2023/06/09 00:34:08;;;;;;;15.80;5.87;;;12.30;99.90;;;;;;5072444;28;20299;-69
2023/06/09 00:36:34;;;;;;;21.20;6.87;;;12.30;99.90;;;;;;5072536;28;20388;-70
2023/06/09 00:38:59;;;;;;;20.47;7.43;;;12.40;99.90;;;;;;5072820;28;20275;-70
2023/06/09 00:41:25;;;;;;;19.90;7.27;;;12.30;99.90;;;;;;5072575;28;20094;-70
2023/06/09 00:43:53;;;;;;;20.00;6.87;;;12.40;99.90;;;;;;5072768;28;20048;-70
2023/06/09 00:46:19;;;;;;;19.43;7.23;;;12.30;99.90;;;;;;5072540;28;20278;-69
2023/06/09 00:48:45;;;;;;;18.67;7.33;;;12.30;99.90;;;;;;5072832;28;20639;-70
2023/06/09 00:51:11;;;;;;;17.47;7.00;;;12.30;99.90;;;;;;5072510;28;20102;-70
2023/06/09 00:53:37;;;;;;;19.03;6.77;;;12.30;99.90;;;;;;5071631;28;20044;-70
2023/06/09 00:56:03;;;;;;;19.33;7.53;;;12.30;99.90;;;;;;5072614;28;20123;-70
2023/06/09 00:58:30;;;;;;;20.90;7.13;;;12.30;99.90;;;;;;5072305;28;20279;-70
2023/06/09 01:00:57;;;;;;;21.13;7.43;;;12.20;99.90;;;;;;5054589;28;20326;-70
2023/06/09 01:03:24;;;;;;;19.57;7.93;;;12.30;99.90;;;;;;5072361;28;20786;-70
2023/06/09 01:05:59;;;;;;;18.93;8.03;;;12.30;99.90;;;;;;5072855;28;20658;-70
2023/06/09 01:08:35;;;;;;;17.03;7.30;;;12.30;99.90;;;;;;5070971;28;20604;-70
2023/06/09 01:11:22;;;;;;;17.07;6.77;;;12.30;99.90;;;;;;5071476;28;20281;-70
2023/06/09 01:14:27;;;;;;;17.73;6.43;;;12.40;99.90;;;;;;5072647;28;20270;-70
2023/06/09 01:17:11;;;;;;;20.37;7.07;;;12.40;99.90;;;;;;5072139;28;20287;-70
2023/06/09 01:19:41;;;;;;;16.97;6.47;;;12.40;99.90;;;;;;5072300;28;20271;-70
2023/06/09 01:22:34;;;;;;;17.97;6.40;;;12.40;99.90;;;;;;5072378;28;20279;-70
2023/06/09 01:25:23;;;;;;;16.77;6.30;;;12.40;99.90;;;;;;5072659;28;20646;-70
2023/06/09 01:27:51;;;;;;;19.37;5.80;;;12.40;99.90;;;;;;5072254;28;20294;-70
2023/06/09 01:30:18;;;;;;;15.90;6.37;;;12.40;99.90;;;;;;5071959;28;20298;-70
2023/06/09 01:32:45;;;;;;;13.30;5.67;;;12.40;99.90;;;;;;5072308;28;20291;-70
2023/06/09 01:35:12;;;;;;;17.13;6.97;;;12.40;99.90;;;;;;5071900;28;20291;-70
2023/06/09 01:37:38;;;;;;;16.17;6.57;;;12.40;99.90;;;;;;5073108;28;20286;-71
2023/06/09 01:40:05;;;;;;;27.20;6.70;;;12.40;99.90;;;;;;5075834;28;20278;-70
2023/06/09 01:42:31;;;;;;;15.50;5.43;;;12.40;99.90;;;;;;5075559;28;20282;-70
2023/06/09 01:44:56;;;;;;;15.17;6.53;;;12.50;99.90;;;;;;5075857;28;20332;-71
2023/06/09 01:47:22;;;;;;;16.90;6.43;;;12.40;99.90;;;;;;5057921;28;20197;-70
2023/06/09 01:50:04;;;;;;;16.80;6.20;;;12.40;99.90;;;;;;5091300;28;20052;-70
2023/06/09 01:52:40;;;;;;;16.10;5.83;;;12.40;99.90;;;;;;5075413;28;20333;-70
2023/06/09 01:55:20;;;;;;;16.90;5.87;;;12.40;99.90;;;;;;5075911;28;20283;-70
2023/06/09 01:58:05;;;;;;;16.00;6.17;;;12.40;99.90;;;;;;5075644;28;20303;-70
2023/06/09 02:00:31;;;;;;;12.13;5.68;;;12.40;99.90;;;;;;5074300;28;20291;-72
2023/06/09 02:03:00;;;;;;;17.13;5.33;;;12.40;99.90;;;;;;5075543;28;20381;-70
2023/06/09 02:05:28;;;;;;;17.73;6.57;;;12.40;99.90;;;;;;5074910;28;20793;-70
2023/06/09 02:07:54;;;;;;;17.07;6.57;;;12.40;99.90;;;;;;5075468;28;20287;-71
2023/06/09 02:10:21;;;;;;;18.67;7.00;;;12.40;99.90;;;;;;5075201;28;20295;-71
2023/06/09 02:12:47;;;;;;;13.90;6.00;;;12.30;99.90;;;;;;5075525;28;20297;-71
2023/06/09 02:15:13;;;;;;;20.40;7.50;;;12.40;99.90;;;;;;5073960;28;20299;-71
2023/06/09 02:17:42;;;;;;;21.13;7.40;;;12.30;99.90;;;;;;5073771;28;20086;-70
2023/06/09 02:20:09;;;;;;;16.30;6.17;;;12.30;99.90;;;;;;5075230;28;20044;-71
2023/06/09 02:22:38;;;;;;;15.73;6.77;;;12.30;99.90;;;;;;5074818;28;20366;-70
2023/06/09 02:25:04;;;;;;;21.00;7.43;;;12.30;99.90;;;;;;5075217;28;20290;-70
2023/06/09 02:27:30;;;;;;;18.37;6.00;;;12.30;99.90;;;;;;5074799;28;20285;-70
2023/06/09 02:29:56;;;;;;;23.23;8.03;;;12.30;99.90;;;;;;5074947;28;20294;-71
2023/06/09 02:32:22;;;;;;;18.20;6.40;;;12.20;99.90;;;;;;5074431;28;20052;-71
2023/06/09 02:34:48;;;;;;;18.77;7.30;;;12.20;99.90;;;;;;5074654;28;20492;-70
2023/06/09 02:37:14;;;;;;;18.23;6.53;;;12.20;99.90;;;;;;5074844;28;20131;-70
2023/06/09 02:39:41;;;;;;;19.80;6.83;;;12.20;99.90;;;;;;5074525;28;20282;-70
2023/06/09 02:42:07;;;;;;;15.17;6.83;;;12.20;99.90;;;;;;5074751;28;20289;-70
2023/06/09 02:44:33;;;;;;;14.90;7.47;;;12.20;99.90;;;;;;5073082;28;20278;-70
2023/06/09 02:46:59;;;;;;;15.47;6.57;;;12.20;99.90;;;;;;5073521;28;20087;-70
2023/06/09 02:49:25;;;;;;;18.63;6.77;;;12.20;99.90;;;;;;5073687;28;20044;-70
2023/06/09 02:51:51;;;;;;;17.30;6.53;;;12.20;99.90;;;;;;5074603;28;20279;-70
2023/06/09 02:54:17;;;;;;;19.37;7.47;;;12.20;99.90;;;;;;5074477;28;20332;-70
2023/06/09 02:56:42;;;;;;;18.57;6.63;;;12.20;99.90;;;;;;5073194;28;20041;-70
2023/06/09 02:59:09;;;;;;;16.00;7.10;;;12.20;99.90;;;;;;5074313;28;20045;-71
2023/06/09 03:01:36;;;;;;;16.57;6.53;;;12.20;99.90;;;;;;5074189;28;20052;-71
2023/06/09 03:04:06;;;;;;;17.87;7.30;;;12.20;99.90;;;;;;5072678;28;20628;-70
2023/06/09 03:06:36;;;;;;;19.10;6.70;;;12.20;99.90;;;;;;5074097;28;20409;-71
2023/06/09 03:09:03;;;;;;;16.73;7.20;;;12.20;99.90;;;;;;5074114;28;20378;-71
2023/06/09 03:11:30;;;;;;;18.70;8.77;;;12.20;99.90;;;;;;5090033;28;20702;-70
2023/06/09 03:13:55;;;;;;;20.80;8.53;;;12.20;99.90;;;;;;5074175;28;20366;-70
2023/06/09 03:16:21;;;;;;;20.17;7.93;;;12.20;99.90;;;;;;5073993;28;20366;-71
2023/06/09 03:18:47;;;;;;;17.03;8.60;;;12.20;99.90;;;;;;5074062;28;20144;-71
2023/06/09 03:21:13;;;;;;;17.40;7.73;;;12.20;99.90;;;;;;5074121;28;20382;-71
2023/06/09 03:23:40;;;;;;;19.67;8.40;;;12.20;99.90;;;;;;5072354;28;20290;-70
2023/06/09 03:26:07;;;;;;;20.80;9.10;;;12.30;99.90;;;;;;5073892;28;20282;-72
2023/06/09 03:28:33;;;;;;;17.93;8.93;;;12.30;99.90;;;;;;5073530;28;20444;-70
2023/06/09 03:30:59;;;;;;;17.93;8.13;;;12.20;99.90;;;;;;5073499;28;20306;-70
2023/06/09 03:33:25;;;;;;;20.20;8.97;;;12.30;99.90;;;;;;5089176;28;20291;-70
2023/06/09 03:35:51;;;;;;;19.77;8.40;;;12.30;99.90;;;;;;5073477;28;20185;-71
2023/06/09 03:38:17;;;;;;;24.33;9.00;;;12.30;99.90;;;;;;5072500;28;20052;-71
2023/06/09 03:40:43;;;;;;;22.83;9.57;;;12.30;99.90;;;;;;5072122;28;20275;-70
2023/06/09 03:43:11;;;;;;;25.73;10.07;;;12.30;99.90;;;;;;5073483;28;20357;-70
2023/06/09 03:45:37;;;;;;;20.50;9.03;;;12.30;99.90;;;;;;5073018;28;20353;-70
2023/06/09 03:48:05;;;;;;;18.93;9.70;;;12.30;99.90;;;;;;5073738;28;20279;-71
2023/06/09 03:50:31;;;;;;;24.83;10.23;;;12.40;99.90;;;;;;5073418;28;20440;-70
2023/06/09 03:52:57;;;;;;;19.20;10.47;;;12.40;99.90;;;;;;5073084;28;20294;-70
2023/06/09 03:55:24;;;;;;;22.87;11.77;;;12.40;99.90;;;;;;5073380;28;20282;-70
2023/06/09 03:57:50;;;;;;;24.33;10.40;;;12.40;99.90;;;;;;5072133;28;20045;-70
2023/06/09 04:00:17;;;;;;;20.67;10.93;;;12.50;99.90;;;;;;5073112;28;20267;-71
2023/06/09 04:02:44;;;;;;;25.97;11.17;;;12.50;99.90;;;;;;5071808;28;20286;-71
2023/06/09 04:05:10;;;;;;;24.90;10.73;;;12.50;99.90;;;;;;5073244;28;20306;-71
2023/06/09 04:07:35;;;;;;;26.87;11.03;;;12.50;99.90;;;;;;5072919;28;20306;-70
2023/06/09 04:10:02;;;;;;;22.70;11.20;;;12.50;99.90;;;;;;5072855;28;20150;-71
2023/06/09 04:12:28;;;;;;;27.33;12.67;;;12.60;99.90;;;;;;5073071;28;20128;-70
2023/06/09 04:14:55;;;;;;;22.47;11.27;;;12.60;99.90;;;;;;5071485;28;20287;-71
2023/06/09 04:17:22;;;;;;;18.20;11.07;;;12.60;99.90;;;;;;5073045;28;20370;-71
2023/06/09 04:19:48;;;;;;;27.90;11.83;;;12.70;99.90;;;;;;5072813;28;20278;-70
2023/06/09 04:22:14;;;;;;;22.33;11.20;;;12.70;99.90;;;;;;5072967;28;20275;-70
2023/06/09 04:24:40;;;;;;;23.53;10.80;;;12.70;99.90;;;;;;5072343;28;20416;-70
2023/06/09 04:27:07;;;;;;;23.93;10.93;;;12.80;99.90;;;;;;5073180;28;20080;-71
2023/06/09 04:29:33;;;;;;;18.77;9.80;;;12.80;99.90;;;;;;5072811;28;20040;-70
2023/06/09 04:32:00;;;;;;;24.00;10.40;;;12.80;99.90;;;;;;5072562;28;20289;-70
2023/06/09 04:34:29;;;;;;;19.67;9.77;;;12.90;99.90;;;;;;5071174;28;20388;-71
2023/06/09 04:36:59;;;;;;;15.67;9.47;;;13.00;99.90;;;;;;5088378;28;20604;-71
2023/06/09 04:39:25;;;;;;;20.10;10.03;;;13.00;99.90;;;;;;5072817;28;20299;-70
2023/06/09 04:41:54;;;;;;;22.83;9.90;;;13.10;99.90;;;;;;5072570;28;20286;-70
2023/06/09 04:44:21;;;;;;;19.07;10.37;;;13.20;99.90;;;;;;5072723;28;20275;-71
2023/06/09 04:46:49;;;;;;;21.90;9.53;;;13.20;99.90;;;;;;5072426;28;20405;-70
2023/06/09 04:49:15;;;;;;;24.10;11.37;;;13.30;99.90;;;;;;5072619;28;20298;-72
2023/06/09 04:51:47;;;;;;;20.67;10.07;;;13.40;99.90;;;;;;5072557;28;20286;-70
2023/06/09 04:54:14;;;;;;;21.13;10.43;;;13.50;99.90;;;;;;5072718;28;20412;-71
2023/06/09 04:56:43;;;;;;;20.93;10.07;;;13.60;99.90;;;;;;5071635;28;20801;-71
2023/06/09 04:59:12;;;;;;;22.27;10.40;;;13.60;99.90;;;;;;5072632;28;20328;-70
2023/06/09 05:01:38;;;;;;;19.60;9.90;;;13.70;99.90;;;;;;5072719;28;20304;-71
2023/06/09 05:04:06;;;;;;;20.47;9.00;;;13.80;99.90;;;;;;5072118;28;20341;-71
2023/06/09 05:06:32;;;;;;;19.00;9.23;;;13.80;99.90;;;;;;5072605;28;20344;-71
2023/06/09 05:08:58;;;;;;;21.50;8.83;;;13.90;99.90;;;;;;5088054;28;20325;-71
2023/06/09 05:11:24;;;;;;;15.77;8.67;;;14.00;99.90;;;;;;5072460;28;20322;-72
2023/06/09 05:13:50;;;;;;;17.43;8.77;;;14.10;99.90;;;;;;5074421;28;20040;-70
2023/06/09 05:16:15;;;;;;;17.30;7.93;;;14.20;99.90;;;;;;5075205;28;20044;-72
2023/06/09 05:18:44;;;;;;;17.30;7.90;;;14.20;99.90;;;;;;5058613;28;20044;-72
2023/06/09 05:21:12;;;;;;;18.07;8.10;;;14.30;99.90;;;;;;5076672;28;20044;-71
2023/06/09 05:23:37;;;;;;;18.97;7.10;;;14.50;99.90;;;;;;5076270;28;20283;-71
2023/06/09 05:26:03;;;;;;;15.30;7.33;;;14.60;99.90;;;;;;5076227;28;20281;-71
2023/06/09 05:28:29;;;;;;;17.00;8.10;;;14.70;99.90;;;;;;5076096;28;20133;-72
2023/06/09 05:30:54;;;;;;;15.07;7.00;;;14.90;99.90;;;;;;5075449;28;20103;-72
2023/06/09 05:33:20;;;;;;;16.13;7.20;;;14.90;99.90;;;;;;5074339;28;20091;-70
2023/06/09 05:35:47;;;;;;;17.83;6.90;;;15.00;99.90;;;;;;5075804;28;20203;-70
2023/06/09 05:38:12;;;;;;;21.37;8.00;;;15.10;99.90;;;;;;5076201;28;20052;-70
2023/06/09 05:40:38;;;;;;;16.67;6.70;;;15.20;99.90;;;;;;5074701;28;20271;-70
2023/06/09 05:43:04;;;;;;;17.57;7.30;;;15.20;99.90;;;;;;5075598;28;20089;-70
2023/06/09 05:45:30;;;;;;;13.90;6.30;;;15.40;99.90;;;;;;5074702;28;20150;-71
2023/06/09 05:47:56;;;;;;;17.27;6.33;;;15.70;99.90;;;;;;5075594;28;20310;-70
2023/06/09 05:50:22;;;;;;;17.03;6.60;;;16.40;99.90;;;;;;5075468;28;20048;-70
2023/06/09 05:52:48;;;;;;;16.87;7.00;;;17.30;99.90;;;;;;5075491;28;20110;-69
2023/06/09 05:55:16;;;;;;;16.47;6.57;;;17.90;99.90;;;;;;5075771;28;20052;-69
2023/06/09 05:57:44;;;;;;;13.07;5.70;;;18.40;99.90;;;;;;5075497;28;20449;-70
2023/06/09 06:00:10;;;;;;;17.40;7.13;;;19.10;99.90;;;;;;5075388;28;20049;-71
2023/06/09 06:02:38;;;;;;;16.17;6.13;;;19.40;99.90;;;;;;5091343;28;20051;-71
2023/06/09 06:05:06;;;;;;;14.23;5.60;;;19.80;99.90;;;;;;5074268;28;20094;-70
2023/06/09 06:07:33;;;;;;;12.13;5.47;;;20.20;99.90;;;;;;5057835;28;20404;-72
2023/06/09 06:09:59;;;;;;;13.50;6.20;;;20.70;99.90;;;;;;5075241;28;20040;-71
2023/06/09 06:12:25;;;;;;;12.33;5.93;;;21.00;99.90;;;;;;5075523;28;20051;-71
2023/06/09 06:14:50;;;;;;;9.67;5.23;;;21.30;99.90;;;;;;5075222;28;20507;-70
2023/06/09 06:17:16;;;;;;;12.30;5.57;;;21.80;99.90;;;;;;5075702;28;20483;-70
2023/06/09 06:19:42;;;;;;;11.93;5.60;;;21.90;99.90;;;;;;5075371;28;20040;-70
2023/06/09 06:22:07;;;;;;;12.97;5.67;;;22.20;99.90;;;;;;5075052;28;20055;-70
2023/06/09 06:24:33;;;;;;;14.23;5.70;;;21.90;99.90;;;;;;5074153;28;20048;-70
2023/06/09 06:26:59;;;;;;;18.40;7.03;;;22.00;99.90;;;;;;5074993;28;20053;-70
2023/06/09 06:29:25;;;;;;;15.07;6.40;;;22.20;99.90;;;;;;5075010;28;20538;-70
2023/06/09 06:31:51;;;;;;;10.83;4.97;;;22.50;99.90;;;;;;5091001;28;20056;-70
2023/06/09 06:34:17;;;;;;;13.20;5.90;;;23.10;99.90;;;;;;5075383;28;20065;-69
2023/06/09 06:36:42;;;;;;;11.87;5.70;;;23.50;99.90;;;;;;5057544;28;20045;-69
2023/06/09 06:39:08;;;;;;;13.50;5.90;;;23.40;99.90;;;;;;5074704;28;20479;-70
2023/06/09 06:41:34;;;;;;;12.83;5.20;;;23.70;99.90;;;;;;5074944;28;20093;-75
2023/06/09 06:44:00;;;;;;;10.07;5.17;;;24.10;98.80;;;;;;5073440;28;20044;-70
2023/06/09 06:46:25;;;;;;;11.53;5.43;;;24.10;96.90;;;;;;5074920;28;20101;-70
2023/06/09 06:48:51;;;;;;;15.00;5.53;;;23.90;95.60;;;;;;5073732;28;20044;-70
2023/06/09 06:51:17;;;;;;;9.40;5.17;;;24.00;95.10;;;;;;5074559;28;20492;-70
2023/06/09 06:53:42;;;;;;;13.10;5.33;;;24.30;96.50;;;;;;5075026;28;20484;-69
2023/06/09 06:56:08;;;;;;;13.00;6.03;;;24.90;95.40;;;;;;5073259;28;20404;-69
2023/06/09 06:58:34;;;;;;;13.93;5.83;;;24.50;89.10;;;;;;5071178;28;20040;-70
2023/06/09 07:01:00;;;;;;;11.13;4.90;;;24.60;81.90;;;;;;5062346;28;20057;-70
2023/06/09 07:03:26;;;;;;;11.07;4.90;;;24.40;89.10;;;;;;5062698;28;20143;-70
2023/06/09 07:05:53;;;;;;;11.77;5.03;;;24.40;89.60;;;;;;5053301;28;20128;-70
2023/06/09 07:08:19;;;;;;;12.27;5.00;;;24.40;83.60;;;;;;5055384;28;20052;-70
2023/06/09 07:10:45;;;;;;;15.57;5.47;;;24.40;83.50;;;;;;5074366;28;20459;-69
2023/06/09 07:13:11;;;;;;;11.07;4.63;;;24.40;81.90;;;;;;5074076;28;20101;-70
2023/06/09 07:15:38;;;;;;;13.20;5.40;;;24.50;83.20;;;;;;5074313;28;20044;-70
2023/06/09 07:18:06;;;;;;;11.10;4.63;;;24.60;83.90;;;;;;5073983;28;20551;-69
2023/06/09 07:20:31;;;;;;;12.63;5.47;;;24.90;84.40;;;;;;5073932;28;20484;-70
2023/06/09 07:22:58;;;;;;;11.27;5.07;;;25.20;79.60;;;;;;5056256;28;20052;-70
2023/06/09 07:25:23;;;;;;;12.03;5.57;;;25.40;79.50;;;;;;5074079;28;20048;-70
2023/06/09 07:27:49;;;;;;;11.37;5.07;;;25.40;77.70;;;;;;5074220;28;20052;-69
2023/06/09 07:30:15;;;;;;;10.37;4.90;;;25.50;77.40;;;;;;5073611;28;20053;-69
2023/06/09 07:32:41;;;;;;;11.33;4.50;;;25.70;74.80;;;;;;5068782;28;20425;-69
2023/06/09 07:35:12;;;;;;;11.43;5.30;;;26.10;72.90;;;;;;5053067;28;20064;-70
2023/06/09 07:37:42;;;;;;;13.43;5.33;;;25.90;65.30;;;;;;5054133;28;20091;-69
2023/06/09 07:40:09;;;;;;;11.57;5.53;;;25.80;66.80;;;;;;5052605;28;20061;-69
2023/06/09 07:42:35;;;;;;;14.90;4.90;;;25.70;65.10;;;;;;5053832;28;20436;-70
2023/06/09 07:45:01;;;;;;;12.50;6.20;;;25.90;66.80;;;;;;5053494;28;20480;-70
2023/06/09 07:47:27;;;;;;;11.33;5.17;;;26.20;66.80;;;;;;5053005;28;20094;-70
2023/06/09 07:49:52;;;;;;;11.33;4.90;;;26.40;64.90;;;;;;5053656;28;20048;-69
2023/06/09 07:52:18;;;;;;;10.83;5.10;;;26.30;64.10;;;;;;5053354;28;20491;-70
2023/06/09 07:54:44;;;;;;;11.57;5.83;;;26.30;64.10;;;;;;5053657;28;20481;-69
2023/06/09 07:57:10;;;;;;;12.10;5.87;;;26.70;63.50;;;;;;5053270;28;20048;-69
2023/06/09 07:59:36;;;;;;;9.53;5.03;;;26.80;61.50;;;;;;5053480;28;20095;-70
2023/06/09 08:02:01;;;;;;;12.90;4.97;;;26.60;59.10;;;;;;5053486;28;20044;-70
2023/06/09 08:04:29;;;;;;;10.73;4.93;;;26.70;60.50;;;;;;5053369;28;20071;-68
2023/06/09 08:06:58;;;;;;;14.02;5.75;;;26.70;60.00;;;;;;5053451;28;20049;-70
2023/06/09 08:09:25;;;;;;;12.40;4.85;;;27.00;59.80;;;;;;5051856;28;20424;-70
2023/06/09 08:11:51;;;;;;;11.88;5.55;;;26.90;58.50;;;;;;5053372;28;20484;-70
2023/06/09 08:14:17;;;;;;;13.52;5.70;;;27.30;58.70;;;;;;5068494;28;20094;-70
2023/06/09 08:16:43;;;;;;;12.18;5.70;;;27.10;55.50;;;;;;5053186;28;20422;-69
2023/06/09 08:19:09;;;;;;;11.35;5.22;;;26.90;56.00;;;;;;5052891;28;20049;-69
2023/06/09 08:21:42;;;;;;;12.00;5.45;;;26.90;56.80;;;;;;5061085;28;20045;-69
2023/06/09 08:24:08;;;;;;;12.05;5.35;;;27.00;57.00;;;;;;5062861;28;20045;-68
2023/06/09 08:26:34;;;;;;;14.55;5.28;;;27.00;55.80;;;;;;5051859;28;20072;-69
2023/06/09 08:29:03;;;;;;;11.82;5.65;;;26.80;56.10;;;;;;5062263;28;20090;-70
2023/06/09 08:31:29;;;;;;;11.73;5.22;;;27.10;57.00;;;;;;5062714;28;20076;-70
2023/06/09 08:33:55;;;;;;;12.27;5.63;;;27.20;57.00;;;;;;5053288;28;20127;-68
2023/06/09 08:36:21;;;;;;;12.10;4.68;;;27.40;57.10;;;;;;5051654;28;20152;-70
2023/06/09 08:38:47;;;;;;;12.27;5.10;;;27.40;56.70;;;;;;5052852;28;20051;-68
2023/06/09 08:41:15;;;;;;;10.75;5.72;;;27.80;56.70;;;;;;5058293;28;20049;-67
2023/06/09 08:43:42;;;;;;;11.55;5.00;;;27.80;55.60;;;;;;5062763;28;20044;-67
2023/06/09 08:46:11;;;;;;;13.95;5.75;;;27.90;56.20;;;;;;5062647;28;20123;-68
2023/06/09 08:48:50;;;;;;;12.68;5.65;;;27.70;57.20;;;;;;5072405;28;20083;-68
2023/06/09 08:51:16;;;;;;;10.98;5.22;;;27.20;55.10;;;;;;5072758;28;20044;-67
2023/06/09 08:53:43;;;;;;;10.82;5.70;;;26.50;57.10;;;;;;5072884;28;20052;-67
2023/06/09 08:56:09;;;;;;;10.68;5.22;;;26.00;58.90;;;;;;5072525;28;20048;-67
2023/06/09 08:58:36;;;;;;;13.02;6.47;;;25.50;60.30;;;;;;5073111;28;20485;-67
2023/06/09 09:01:03;;;;;;;10.00;5.10;;;25.10;62.90;;;;;;5057968;28;20072;-66
2023/06/09 09:03:29;;;;;;;13.65;5.80;;;24.70;66.10;;;;;;5052396;28;20063;-71
2023/06/09 09:05:55;;;;;;;13.75;6.45;;;24.30;70.10;;;;;;5051642;28;20048;-70
2023/06/09 09:08:21;;;;;;;13.17;5.37;;;24.30;75.00;;;;;;5052349;28;20124;-71
2023/06/09 09:10:47;;;;;;;11.00;5.30;;;24.10;78.60;;;;;;5052234;28;20498;-70
2023/06/09 09:13:13;;;;;;;11.77;5.23;;;24.00;81.60;;;;;;5051415;28;20072;-69
2023/06/09 09:15:51;;;;;;;11.13;5.47;;;24.00;82.50;;;;;;5052733;28;20048;-70
2023/06/09 09:18:19;;;;;;;13.40;5.83;;;24.10;85.10;;;;;;5052416;28;20067;-70
2023/06/09 09:20:45;;;;;;;11.33;5.10;;;24.00;87.80;;;;;;5052633;28;20120;-70
2023/06/09 09:23:11;;;;;;;12.80;5.50;;;24.00;90.30;;;;;;5052501;28;20045;-70
2023/06/09 09:25:37;;;;;;;11.63;5.20;;;24.00;88.60;;;;;;5052937;28;20434;-70
2023/06/09 09:28:10;;;;;;;11.53;5.10;;;24.00;90.40;;;;;;5052669;28;20460;-71
2023/06/09 09:30:46;;;;;;;12.37;6.00;;;24.10;90.70;;;;;;5052378;28;20045;-71
2023/06/09 09:33:22;;;;;;;15.63;5.50;;;24.30;90.70;;;;;;5051120;28;20133;-70
2023/06/09 09:35:55;;;;;;;12.77;5.50;;;24.30;90.10;;;;;;5068157;28;20401;-71
2023/06/09 09:38:27;;;;;;;11.27;5.07;;;24.30;88.00;;;;;;5052429;28;20080;-71
2023/06/09 09:40:54;;;;;;;10.47;4.67;;;24.10;88.30;;;;;;5052568;28;20049;-71
2023/06/09 09:43:23;;;;;;;12.03;4.70;;;24.30;87.20;;;;;;5067839;28;20103;-70
2023/06/09 09:45:54;;;;;;;9.50;4.40;;;24.40;84.90;;;;;;5052455;28;20507;-70
2023/06/09 09:48:24;;;;;;;11.10;5.07;;;24.40;83.20;;;;;;5034498;28;20045;-70
2023/06/09 09:50:52;;;;;;;11.17;4.33;;;24.50;78.60;;;;;;5051335;28;20045;-70
2023/06/09 09:53:22;;;;;;;11.43;5.10;;;24.50;79.90;;;;;;5052104;28;20053;-70
2023/06/09 09:55:47;;;;;;;11.47;5.17;;;24.50;75.70;;;;;;5052075;28;20500;-70
2023/06/09 09:58:15;;;;;;;10.27;4.67;;;24.50;76.30;;;;;;5052871;28;20056;-70
2023/06/09 10:00:46;;;;;;;9.23;4.83;;;24.60;78.90;;;;;;5055929;28;20128;-70
2023/06/09 10:03:17;;;;;;;10.23;5.37;;;24.70;78.50;;;;;;5055987;28;20049;-70
2023/06/09 10:05:47;;;;;;;10.63;4.70;;;24.70;76.70;;;;;;5055164;28;20052;-70
2023/06/09 10:08:21;;;;;;;9.97;4.67;;;24.60;73.90;;;;;;5055719;28;20101;-71
2023/06/09 10:10:49;;;;;;;12.50;4.88;;;24.50;73.00;;;;;;5054137;28;20099;-71
2023/06/09 10:13:15;;;;;;;8.90;5.07;;;24.50;73.60;;;;;;5055638;28;20045;-72
2023/06/09 10:15:43;;;;;;;9.83;4.37;;;24.60;73.60;;;;;;5055317;28;20056;-70
2023/06/09 10:18:09;;;;;;;11.47;5.83;;;24.60;72.60;;;;;;5055885;28;20057;-70
2023/06/09 10:20:36;;;;;;;9.90;4.40;;;24.60;71.20;;;;;;5055316;28;20091;-70
2023/06/09 10:23:02;;;;;;;10.67;4.43;;;24.60;72.40;;;;;;5055464;28;20123;-71
2023/06/09 10:25:29;;;;;;;12.13;5.67;;;24.60;71.90;;;;;;5055346;28;20052;-71
2023/06/09 10:27:55;;;;;;;11.70;4.80;;;24.60;72.60;;;;;;5054104;28;20426;-71
2023/06/09 10:30:21;;;;;;;10.23;4.73;;;24.60;73.30;;;;;;5054996;28;20131;-72
2023/06/09 10:32:59;;;;;;;11.67;4.60;;;24.60;73.30;;;;;;5053927;28;20049;-71
2023/06/09 10:35:31;;;;;;;13.07;5.57;;;24.60;77.00;;;;;;5055110;28;20102;-71
2023/06/09 10:37:58;;;;;;;10.77;4.90;;;24.70;75.00;;;;;;5055453;28;20045;-71
2023/06/09 10:40:43;;;;;;;9.03;4.63;;;24.80;73.10;;;;;;5054328;28;20366;-72
2023/06/09 10:43:11;;;;;;;11.63;5.23;;;24.80;73.40;;;;;;5055066;28;20092;-71
2023/06/09 10:45:54;;;;;;;9.13;4.13;;;24.80;74.20;;;;;;5054560;28;20060;-70
2023/06/09 10:48:40;;;;;;;12.07;4.93;;;24.90;73.10;;;;;;5055087;28;20370;-71
2023/06/09 10:51:28;;;;;;;10.60;5.03;;;24.90;73.80;;;;;;5054786;28;20040;-68
2023/06/09 10:54:12;;;;;;;19.80;5.10;;;24.90;74.60;;;;;;5054849;28;20485;-71
2023/06/09 10:56:45;;;;;;;11.30;4.53;;;25.10;75.50;;;;;;5054508;28;20053;-72
2023/06/09 10:59:26;;;;;;;9.73;4.70;;;25.10;73.30;;;;;;5054591;28;20432;-73
2023/06/09 11:02:03;;;;;;;8.53;4.90;;;25.10;71.60;;;;;;5054855;28;20049;-70
2023/06/09 11:04:38;;;;;;;8.27;4.30;;;25.10;71.80;;;;;;5054029;28;20451;-72
2023/06/09 11:07:22;;;;;;;9.85;4.47;;;25.20;70.20;;;;;;5053560;28;20481;-71
2023/06/09 11:09:48;;;;;;;12.93;4.30;;;25.10;71.80;;;;;;5052353;28;20052;-72
2023/06/09 11:12:38;;;;;;;16.50;5.00;;;25.20;71.90;;;;;;5054444;28;20478;-71
2023/06/09 11:15:06;;;;;;;10.00;5.03;;;25.20;71.90;;;;;;5048556;28;20092;-71
2023/06/09 11:17:37;;;;;;;10.23;5.10;;;25.20;71.40;;;;;;5066738;28;20590;-71
2023/06/09 11:20:06;;;;;;;9.07;4.80;;;25.30;70.50;;;;;;5074141;28;20478;-71
2023/06/09 11:22:54;;;;;;;10.43;4.80;;;25.30;69.90;;;;;;5073567;28;20151;-72
2023/06/09 11:25:20;;;;;;;10.77;4.47;;;25.30;71.00;;;;;;5066635;28;20412;-72
2023/06/09 11:27:47;;;;;;;13.10;5.60;;;25.30;72.00;;;;;;5073702;28;20056;-72
2023/06/09 11:30:18;;;;;;;11.43;4.77;;;25.30;69.80;;;;;;5073851;28;20101;-71
2023/06/09 11:32:47;;;;;;;10.57;4.73;;;25.40;69.30;;;;;;5072056;28;20052;-72
2023/06/09 11:35:28;;;;;;;9.40;4.63;;;25.30;70.40;;;;;;5072854;28;20087;-72
2023/06/09 11:38:07;;;;;;;10.60;4.73;;;25.40;71.40;;;;;;5073996;28;20045;-72
2023/06/09 11:40:35;;;;;;;6.77;4.13;;;25.40;71.30;;;;;;5073868;28;20037;-72
2023/06/09 11:43:06;;;;;;;8.90;4.97;;;25.40;71.80;;;;;;5073931;28;20129;-72
2023/06/09 11:45:32;;;;;;;8.50;4.90;;;25.50;67.90;;;;;;5073313;28;20047;-72
2023/06/09 11:47:59;;;;;;;9.23;4.40;;;25.50;70.00;;;;;;5072507;28;20097;-71
2023/06/09 11:50:44;;;;;;;9.50;4.33;;;25.50;67.60;;;;;;5073627;28;20105;-72
2023/06/09 11:53:24;;;;;;;11.18;5.55;;;25.60;67.30;;;;;;5073931;28;20051;-72
2023/06/09 11:56:03;;;;;;;10.37;5.27;;;25.50;67.50;;;;;;5073541;28;20051;-73
2023/06/09 11:58:29;;;;;;;11.40;5.10;;;25.50;68.30;;;;;;5073431;28;20087;-72
2023/06/09 12:00:56;;;;;;;8.80;5.17;;;25.60;68.40;;;;;;5073598;28;20080;-72
2023/06/09 12:03:23;;;;;;;12.37;4.97;;;25.60;67.30;;;;;;5089325;28;20077;-72
2023/06/09 12:05:50;;;;;;;11.90;5.20;;;25.60;67.70;;;;;;5073344;28;20053;-72
2023/06/09 12:08:16;;;;;;;7.07;4.17;;;25.60;66.80;;;;;;5073465;28;20041;-72
2023/06/09 12:10:41;;;;;;;12.43;4.40;;;25.60;69.40;;;;;;5073148;28;20123;-72
2023/06/09 12:13:07;;;;;;;9.57;4.87;;;25.70;69.10;;;;;;5073412;28;20481;-72
2023/06/09 12:15:33;;;;;;;13.03;5.27;;;25.80;69.40;;;;;;5072880;28;20044;-71
2023/06/09 12:18:03;;;;;;;13.63;5.30;;;25.80;66.20;;;;;;5073402;28;20044;-72
2023/06/09 12:20:30;;;;;;;11.30;5.40;;;25.90;68.30;;;;;;5073426;28;20048;-72
2023/06/09 12:22:57;;;;;;;8.97;4.90;;;26.00;65.60;;;;;;5072387;28;20044;-72
2023/06/09 12:25:25;;;;;;;8.23;4.87;;;26.00;65.80;;;;;;5073353;28;20041;-72
2023/06/09 12:27:56;;;;;;;9.97;4.83;;;26.00;67.70;;;;;;5073187;28;20477;-72
2023/06/09 12:30:48;;;;;;;10.83;5.27;;;26.00;69.80;;;;;;5073237;28;20040;-73
2023/06/09 12:33:15;;;;;;;8.97;5.43;;;26.10;70.50;;;;;;5073099;28;20096;-72
2023/06/09 12:35:55;;;;;;;10.77;5.10;;;26.20;69.20;;;;;;5072002;28;20057;-71
2023/06/09 12:38:22;;;;;;;12.60;4.90;;;26.20;64.30;;;;;;5073082;28;20049;-72
2023/06/09 12:40:56;;;;;;;10.80;4.87;;;26.20;63.30;;;;;;5071854;28;20123;-72
2023/06/09 12:43:26;;;;;;;10.87;5.10;;;26.20;64.10;;;;;;5073093;28;20044;-72
2023/06/09 12:45:57;;;;;;;8.90;4.80;;;26.10;63.80;;;;;;5072434;28;20507;-72